createdAt,value
2019-04-11T00:00:25.623Z,944.72
2019-04-11T00:01:35.874Z,944.71
2019-04-11T00:02:25.195Z,944.75
2019-04-11T00:03:25.206Z,944.73
2019-04-11T00:04:25.960Z,944.78
2019-04-11T00:05:24.889Z,944.79
2019-04-11T00:06:25.633Z,944.81
2019-04-11T00:07:24.683Z,944.81
2019-04-11T00:08:24.580Z,944.82
2019-04-11T00:09:24.895Z,944.81
2019-04-11T00:10:24.992Z,944.80
2019-04-11T00:11:24.289Z,944.83
2019-04-11T00:12:24.361Z,944.78
2019-04-11T00:13:26.995Z,944.79
2019-04-11T00:14:24.215Z,944.77
2019-04-11T00:15:24.494Z,944.77
2019-04-11T00:16:23.872Z,944.76
2019-04-11T00:17:23.784Z,944.76
2019-04-11T00:18:23.559Z,944.74
2019-04-11T00:19:23.456Z,944.71
2019-04-11T00:20:24.254Z,944.73
2019-04-11T00:21:24.502Z,944.69
2019-04-11T00:22:23.627Z,944.72
2019-04-11T00:23:23.891Z,944.67
2019-04-11T00:24:23.210Z,944.72
2019-04-11T00:25:23.195Z,944.67
2019-04-11T00:26:22.753Z,944.65
2019-04-11T00:27:22.636Z,944.68
2019-04-11T00:28:23.637Z,944.69
2019-04-11T00:29:22.675Z,944.69
2019-04-11T00:30:22.334Z,944.71
2019-04-11T00:31:23.042Z,944.68
2019-04-11T00:32:22.332Z,944.70
2019-04-11T00:33:23.114Z,944.68
2019-04-11T00:34:22.663Z,944.68
2019-04-11T00:35:21.818Z,944.70
2019-04-11T00:36:22.210Z,944.68
2019-04-11T00:37:21.616Z,944.67
2019-04-11T00:38:21.530Z,944.64
2019-04-11T00:39:21.583Z,944.70
2019-04-11T00:40:21.558Z,944.71
2019-04-11T00:41:21.773Z,944.68
2019-04-11T00:42:21.102Z,944.67
2019-04-11T00:43:30.609Z,944.67
2019-04-11T00:44:20.987Z,944.69
2019-04-11T00:45:21.289Z,944.70
2019-04-11T00:46:20.708Z,944.70
2019-04-11T00:47:20.778Z,944.69
2019-04-11T00:48:21.694Z,944.70
2019-04-11T00:49:20.384Z,944.67
2019-04-11T00:50:21.167Z,944.68
2019-04-11T00:51:20.193Z,944.65
2019-04-11T00:52:20.576Z,944.65
2019-04-11T00:53:20.468Z,944.62
2019-04-11T00:54:19.870Z,944.61
2019-04-11T00:55:19.771Z,944.60
2019-04-11T00:56:19.947Z,944.62
2019-04-11T00:57:19.561Z,944.63
2019-04-11T00:58:19.458Z,944.61
2019-04-11T00:59:20.376Z,944.55
2019-04-11T01:00:19.273Z,944.60
2019-04-11T01:01:19.805Z,944.58
2019-04-11T01:02:19.049Z,944.58
2019-04-11T01:03:20.060Z,944.60
2019-04-11T01:04:19.935Z,944.60
2019-04-11T01:05:18.747Z,944.61
2019-04-11T01:06:18.655Z,944.59
2019-04-11T01:07:18.580Z,944.64
2019-04-11T01:08:18.437Z,944.62
2019-04-11T01:09:18.331Z,944.61
2019-04-11T01:10:18.228Z,944.65
2019-04-11T01:11:18.147Z,944.60
2019-04-11T01:12:18.607Z,944.60
2019-04-11T01:13:17.924Z,944.60
2019-04-11T01:14:17.821Z,944.61
2019-04-11T01:15:17.717Z,944.58
2019-04-11T01:16:17.627Z,944.59
2019-04-11T01:17:17.510Z,944.59
2019-04-11T01:18:18.050Z,944.59
2019-04-11T01:19:18.402Z,944.61
2019-04-11T01:20:17.465Z,944.59
2019-04-11T01:21:17.896Z,944.61
2019-04-11T01:22:18.108Z,944.57
2019-04-11T01:23:16.895Z,944.58
2019-04-11T01:24:17.742Z,944.59
2019-04-11T01:25:16.752Z,944.61
2019-04-11T01:26:17.017Z,944.59
2019-04-11T01:27:16.482Z,944.62
2019-04-11T01:28:16.493Z,944.65
2019-04-11T01:29:17.484Z,944.68
2019-04-11T01:30:16.175Z,944.66
2019-04-11T01:31:16.094Z,944.64
2019-04-11T01:32:16.062Z,944.68
2019-04-11T01:33:15.970Z,944.68
2019-04-11T01:34:16.207Z,944.66
2019-04-11T01:35:15.661Z,944.67
2019-04-11T01:36:15.574Z,944.62
2019-04-11T01:37:15.571Z,944.65
2019-04-11T01:38:16.481Z,944.67
2019-04-11T01:39:15.250Z,944.65
2019-04-11T01:40:15.791Z,944.65
2019-04-11T01:41:15.141Z,944.67
2019-04-11T01:42:16.141Z,944.63
2019-04-11T01:43:15.651Z,944.62
2019-04-11T01:44:14.737Z,944.68
2019-04-11T01:45:14.632Z,944.68
2019-04-11T01:46:14.549Z,944.67
2019-04-11T01:47:15.010Z,944.66
2019-04-11T01:48:15.285Z,944.59
2019-04-11T01:49:14.340Z,944.63
2019-04-11T01:50:14.120Z,944.63
2019-04-11T01:51:14.030Z,944.65
2019-04-11T01:52:14.017Z,944.60
2019-04-11T01:53:15.047Z,944.65
2019-04-11T01:54:13.816Z,944.64
2019-04-11T01:55:14.399Z,944.66
2019-04-11T01:56:14.784Z,944.69
2019-04-11T01:57:13.841Z,944.73
2019-04-11T01:58:14.231Z,944.66
2019-04-11T01:59:13.251Z,944.68
2019-04-11T02:00:13.092Z,944.71
2019-04-11T02:01:13.100Z,944.75
2019-04-11T02:02:13.585Z,944.74
2019-04-11T02:03:12.948Z,944.71
2019-04-11T02:04:12.680Z,944.74
2019-04-11T02:05:12.579Z,944.77
2019-04-11T02:06:12.474Z,944.73
2019-04-11T02:07:12.410Z,944.78
2019-04-11T02:08:13.262Z,944.71
2019-04-11T02:09:12.166Z,944.75
2019-04-11T02:10:12.733Z,944.79
2019-04-11T02:11:12.941Z,944.77
2019-04-11T02:12:12.084Z,944.78
2019-04-11T02:13:11.961Z,944.79
2019-04-11T02:14:16.263Z,944.76
2019-04-11T02:15:12.312Z,944.77
2019-04-11T02:16:12.551Z,944.75
2019-04-11T02:17:12.523Z,944.81
2019-04-11T02:18:11.242Z,944.82
2019-04-11T02:19:12.118Z,944.81
2019-04-11T02:20:11.035Z,944.82
2019-04-11T02:21:11.555Z,944.81
2019-04-11T02:22:10.948Z,944.81
2019-04-11T02:23:10.923Z,944.84
2019-04-11T02:24:11.851Z,944.85
2019-04-11T02:25:10.523Z,944.82
2019-04-11T02:26:11.437Z,944.84
2019-04-11T02:27:10.613Z,944.82
2019-04-11T02:28:10.644Z,944.84
2019-04-11T02:29:11.132Z,944.90
2019-04-11T02:30:11.220Z,944.88
2019-04-11T02:31:11.577Z,944.89
2019-04-11T02:32:11.750Z,944.88
2019-04-11T02:33:11.687Z,944.94
2019-04-11T02:34:11.464Z,944.92
2019-04-11T02:35:11.148Z,944.91
2019-04-11T02:36:11.254Z,944.93
2019-04-11T02:37:09.679Z,944.90
2019-04-11T02:38:09.700Z,944.94
2019-04-11T02:39:14.223Z,944.95
2019-04-11T02:40:09.032Z,944.95
2019-04-11T02:41:10.584Z,944.96
2019-04-11T02:42:09.463Z,944.97
2019-04-11T02:43:09.836Z,944.96
2019-04-11T02:44:27.213Z,944.97
2019-04-11T02:45:23.090Z,944.99
2019-04-11T02:46:17.642Z,944.98
2019-04-11T02:47:13.620Z,944.94
2019-04-11T02:48:10.089Z,944.97
2019-04-11T02:49:08.218Z,944.99
2019-04-11T02:50:08.799Z,944.98
2019-04-11T02:51:07.878Z,944.99
2019-04-11T02:52:09.329Z,944.99
2019-04-11T02:53:09.263Z,944.99
2019-04-11T02:54:07.813Z,944.99
2019-04-11T02:55:08.530Z,945.00
2019-04-11T02:56:09.274Z,944.95
2019-04-11T02:57:07.943Z,944.99
2019-04-11T02:58:07.847Z,945.00
2019-04-11T02:59:07.035Z,945.01
2019-04-11T03:00:08.565Z,945.04
2019-04-11T03:01:07.949Z,945.01
2019-04-11T03:02:07.468Z,945.02
2019-04-11T03:03:08.463Z,945.04
2019-04-11T03:04:07.418Z,945.01
2019-04-11T03:05:07.126Z,945.03
2019-04-11T03:06:07.085Z,945.04
2019-04-11T03:07:07.949Z,945.01
2019-04-11T03:08:10.551Z,945.06
2019-04-11T03:09:07.042Z,945.06
2019-04-11T03:10:07.341Z,945.06
2019-04-11T03:11:07.572Z,945.04
2019-04-11T03:12:07.247Z,945.01
2019-04-11T03:13:05.760Z,945.07
2019-04-11T03:14:05.489Z,945.06
2019-04-11T03:15:24.133Z,945.04
2019-04-11T03:16:23.720Z,945.08
2019-04-11T03:17:12.917Z,945.09
2019-04-11T03:18:09.190Z,945.07
2019-04-11T03:19:22.700Z,945.13
2019-04-11T03:20:18.387Z,945.14
2019-04-11T03:21:11.312Z,945.09
2019-04-11T03:22:05.636Z,945.12
2019-04-11T03:23:07.650Z,945.13
2019-04-11T03:24:06.255Z,945.09
2019-04-11T03:25:06.014Z,945.13
2019-04-11T03:26:05.443Z,945.17
2019-04-11T03:27:04.937Z,945.16
2019-04-11T03:28:05.118Z,945.16
2019-04-11T03:29:04.187Z,945.17
2019-04-11T03:30:07.052Z,945.15
2019-04-11T03:31:37.383Z,945.12
2019-04-11T03:32:40.122Z,945.13
2019-04-11T03:37:50.012Z,945.12
2019-04-11T03:38:23.123Z,945.12
2019-04-11T03:39:21.666Z,945.11
2019-04-11T03:40:22.463Z,945.08
2019-04-11T03:41:20.428Z,945.12
2019-04-11T03:42:16.889Z,945.11
2019-04-11T03:43:16.789Z,945.13
2019-04-11T03:44:11.964Z,945.12
2019-04-11T03:45:29.021Z,945.15
2019-04-11T03:46:19.893Z,945.12
2019-04-11T03:47:18.174Z,945.11
2019-04-11T03:48:19.695Z,945.10
2019-04-11T03:49:14.784Z,945.13
2019-04-11T03:50:08.164Z,945.14
2019-04-11T03:51:02.475Z,945.12
2019-04-11T03:52:03.420Z,945.13
2019-04-11T03:53:03.497Z,945.12
2019-04-11T03:54:01.531Z,945.09
2019-04-11T03:55:03.941Z,945.12
2019-04-11T03:56:01.596Z,945.11
2019-04-11T03:57:01.291Z,945.12
2019-04-11T03:58:01.218Z,945.11
2019-04-11T03:59:01.456Z,945.15
2019-04-11T04:00:01.706Z,945.13
2019-04-11T04:01:03.389Z,945.16
2019-04-11T04:02:00.790Z,945.17
2019-04-11T04:03:01.556Z,945.16
2019-04-11T04:04:00.653Z,945.15
2019-04-11T04:05:01.346Z,945.17
2019-04-11T04:06:01.879Z,945.18
2019-04-11T04:07:00.036Z,945.15
2019-04-11T04:08:01.736Z,945.20
2019-04-11T04:09:00.681Z,945.19
2019-04-11T04:10:00.449Z,945.18
2019-04-11T04:11:00.622Z,945.21
2019-04-11T04:11:59.694Z,945.20
2019-04-11T04:13:00.799Z,945.22
2019-04-11T04:13:59.978Z,945.26
2019-04-11T04:15:01.231Z,945.24
2019-04-11T04:16:08.158Z,945.23
2019-04-11T04:17:01.651Z,945.26
2019-04-11T04:17:59.675Z,945.24
2019-04-11T04:19:01.042Z,945.22
2019-04-11T04:19:59.584Z,945.24
2019-04-11T04:20:59.714Z,945.27
2019-04-11T04:21:59.604Z,945.31
2019-04-11T04:22:58.467Z,945.30
2019-04-11T04:24:01.366Z,945.31
2019-04-11T04:24:58.939Z,945.29
2019-04-11T04:25:58.476Z,945.28
2019-04-11T04:27:00.948Z,945.32
2019-04-11T04:27:58.868Z,945.36
2019-04-11T04:28:57.896Z,945.34
2019-04-11T04:30:01.506Z,945.35
2019-04-11T04:30:57.873Z,945.40
2019-04-11T04:31:59.293Z,945.40
2019-04-11T04:32:57.408Z,945.40
2019-04-11T04:33:57.748Z,945.44
2019-04-11T04:34:58.513Z,945.45
2019-04-11T04:35:58.094Z,945.44
2019-04-11T04:36:57.872Z,945.43
2019-04-11T04:37:57.142Z,945.45
2019-04-11T04:38:57.324Z,945.44
2019-04-11T04:40:16.295Z,945.45
2019-04-11T04:41:13.477Z,945.49
2019-04-11T04:42:03.762Z,945.49
2019-04-11T04:42:58.494Z,945.50
2019-04-11T04:43:57.595Z,945.48
2019-04-11T04:44:56.141Z,945.53
2019-04-11T04:46:11.563Z,945.53
2019-04-11T04:47:10.192Z,945.53
2019-04-11T04:48:02.942Z,945.52
2019-04-11T04:48:56.147Z,945.54
2019-04-11T04:49:57.078Z,945.55
2019-04-11T04:50:57.618Z,945.56
2019-04-11T04:51:56.057Z,945.53
2019-04-11T04:52:56.052Z,945.53
2019-04-11T04:53:55.631Z,945.61
2019-04-11T04:54:57.349Z,945.62
2019-04-11T04:55:55.097Z,945.62
2019-04-11T04:56:55.198Z,945.64
2019-04-11T04:57:55.453Z,945.63
2019-04-11T04:58:56.003Z,945.64
2019-04-11T04:59:55.539Z,945.68
2019-04-11T05:00:56.769Z,945.65
2019-04-11T05:01:55.444Z,945.66
2019-04-11T05:02:55.433Z,945.67
2019-04-11T05:03:54.232Z,945.69
2019-04-11T05:04:54.325Z,945.68
2019-04-11T05:05:55.293Z,945.72
2019-04-11T05:06:54.903Z,945.73
2019-04-11T05:07:54.078Z,945.74
2019-04-11T05:08:53.662Z,945.74
2019-04-11T05:09:54.500Z,945.80
2019-04-11T05:10:53.609Z,945.75
2019-04-11T05:11:55.015Z,945.76
2019-04-11T05:12:54.787Z,945.82
2019-04-11T05:13:54.488Z,945.85
2019-04-11T05:14:54.151Z,945.84
2019-04-11T05:16:05.768Z,945.84
2019-04-11T05:16:54.487Z,945.84
2019-04-11T05:17:53.325Z,945.84
2019-04-11T05:18:52.644Z,945.86
2019-04-11T05:19:52.525Z,945.84
2019-04-11T05:20:52.769Z,945.85
2019-04-11T05:21:52.317Z,945.86
2019-04-11T05:22:52.428Z,945.87
2019-04-11T05:23:52.240Z,945.84
2019-04-11T05:24:52.012Z,945.86
2019-04-11T05:25:53.005Z,945.87
2019-04-11T05:26:52.325Z,945.89
2019-04-11T05:27:51.737Z,945.91
2019-04-11T05:28:51.618Z,945.90
2019-04-11T05:29:51.616Z,945.93
2019-04-11T05:30:51.514Z,945.94
2019-04-11T05:31:51.294Z,945.93
2019-04-11T05:32:51.394Z,945.94
2019-04-11T05:33:51.815Z,945.95
2019-04-11T05:34:51.162Z,945.93
2019-04-11T05:35:52.068Z,946.01
2019-04-11T05:36:50.783Z,946.03
2019-04-11T05:37:51.465Z,946.03
2019-04-11T05:38:50.640Z,946.07
2019-04-11T05:39:50.535Z,946.07
2019-04-11T05:40:50.402Z,946.04
2019-04-11T05:41:51.400Z,946.07
2019-04-11T05:42:53.442Z,946.04
2019-04-11T05:43:51.450Z,946.06
2019-04-11T05:44:50.042Z,946.09
2019-04-11T05:45:53.590Z,946.10
2019-04-11T05:46:56.246Z,946.15
2019-04-11T05:47:53.420Z,946.10
2019-04-11T05:48:50.577Z,946.16
2019-04-11T05:49:50.520Z,946.13
2019-04-11T05:50:51.641Z,946.14
2019-04-11T05:51:49.429Z,946.19
2019-04-11T05:52:50.325Z,946.18
2019-04-11T05:53:51.368Z,946.14
2019-04-11T05:54:49.793Z,946.17
2019-04-11T05:55:48.863Z,946.18
2019-04-11T05:56:53.703Z,946.19
2019-04-11T05:57:48.664Z,946.21
2019-04-11T05:58:49.399Z,946.25
2019-04-11T05:59:51.157Z,946.24
2019-04-11T06:00:48.942Z,946.20
2019-04-11T06:01:48.792Z,946.21
2019-04-11T06:02:49.218Z,946.30
2019-04-11T06:03:49.262Z,946.32
2019-04-11T06:04:51.748Z,946.24
2019-04-11T06:05:47.874Z,946.24
2019-04-11T06:06:47.768Z,946.25
2019-04-11T06:07:50.180Z,946.26
2019-04-11T06:08:48.259Z,946.22
2019-04-11T06:09:48.200Z,946.30
2019-04-11T06:10:48.389Z,946.28
2019-04-11T06:11:48.204Z,946.23
2019-04-11T06:12:47.318Z,946.29
2019-04-11T06:13:47.094Z,946.28
2019-04-11T06:14:47.174Z,946.35
2019-04-11T06:15:47.215Z,946.39
2019-04-11T06:16:51.907Z,946.43
2019-04-11T06:17:46.688Z,946.36
2019-04-11T06:18:46.613Z,946.33
2019-04-11T06:19:46.485Z,946.35
2019-04-11T06:20:47.235Z,946.40
2019-04-11T06:21:46.459Z,946.41
2019-04-11T06:22:46.191Z,946.47
2019-04-11T06:23:46.109Z,946.53
2019-04-11T06:24:45.996Z,946.55
2019-04-11T06:25:46.852Z,946.59
2019-04-11T06:26:46.949Z,946.59
2019-04-11T06:27:45.699Z,946.62
2019-04-11T06:28:45.620Z,946.68
2019-04-11T06:29:45.503Z,946.76
2019-04-11T06:30:45.406Z,946.74
2019-04-11T06:31:45.450Z,946.78
2019-04-11T06:32:45.859Z,946.78
2019-04-11T06:33:45.131Z,946.81
2019-04-11T06:34:45.015Z,946.88
2019-04-11T06:35:44.926Z,946.92
2019-04-11T06:36:45.452Z,946.95
2019-04-11T06:37:45.702Z,946.91
2019-04-11T06:38:44.940Z,947.02
2019-04-11T06:39:45.338Z,947.00
2019-04-11T06:40:44.432Z,947.05
2019-04-11T06:41:44.338Z,947.06
2019-04-11T06:42:44.239Z,947.08
2019-04-11T06:43:44.565Z,947.10
2019-04-11T06:44:44.049Z,947.16
2019-04-11T06:45:44.005Z,947.15
2019-04-11T06:46:52.357Z,947.23
2019-04-11T06:47:43.758Z,947.21
2019-04-11T06:48:43.678Z,947.21
2019-04-11T06:49:44.627Z,947.26
2019-04-11T06:50:43.868Z,947.31
2019-04-11T06:51:44.157Z,947.32
2019-04-11T06:52:43.379Z,947.29
2019-04-11T06:53:44.121Z,947.37
2019-04-11T06:54:43.404Z,947.39
2019-04-11T06:55:42.994Z,947.32
2019-04-11T06:56:43.401Z,947.43
2019-04-11T06:57:42.804Z,947.46
2019-04-11T06:58:43.709Z,947.50
2019-04-11T06:59:42.934Z,947.55
2019-04-11T07:00:42.620Z,947.57
2019-04-11T07:01:42.662Z,947.59
2019-04-11T07:02:42.326Z,947.61
2019-04-11T07:03:42.233Z,947.63
2019-04-11T07:04:42.151Z,947.67
2019-04-11T07:05:42.695Z,947.69
2019-04-11T07:06:41.957Z,947.69
2019-04-11T07:07:42.929Z,947.79
2019-04-11T07:08:42.656Z,947.86
2019-04-11T07:09:41.681Z,947.92
2019-04-11T07:10:42.529Z,947.92
2019-04-11T07:11:42.599Z,947.93
2019-04-11T07:12:41.371Z,948.02
2019-04-11T07:13:41.307Z,948.10
2019-04-11T07:14:41.201Z,948.08
2019-04-11T07:15:41.085Z,948.14
2019-04-11T07:16:40.993Z,948.06
2019-04-11T07:17:40.909Z,948.18
2019-04-11T07:18:40.883Z,948.14
2019-04-11T07:19:41.534Z,948.19
2019-04-11T07:20:41.415Z,948.17
2019-04-11T07:21:41.867Z,948.25
2019-04-11T07:22:41.051Z,948.23
2019-04-11T07:23:40.580Z,948.21
2019-04-11T07:24:41.047Z,948.37
2019-04-11T07:25:40.133Z,948.33
2019-04-11T07:26:40.038Z,948.46
2019-04-11T07:27:40.887Z,948.39
2019-04-11T07:28:39.956Z,948.51
2019-04-11T07:29:40.108Z,948.53
2019-04-11T07:30:39.714Z,948.55
2019-04-11T07:31:39.818Z,948.55
2019-04-11T07:32:40.570Z,948.52
2019-04-11T07:33:39.367Z,948.58
2019-04-11T07:34:40.060Z,948.56
2019-04-11T07:35:39.873Z,948.61
2019-04-11T07:36:40.435Z,948.66
2019-04-11T07:37:40.511Z,948.72
2019-04-11T07:38:38.898Z,948.71
2019-04-11T07:39:42.338Z,948.69
2019-04-11T07:40:39.463Z,948.70
2019-04-11T07:41:39.436Z,948.75
2019-04-11T07:42:39.055Z,948.79
2019-04-11T07:43:39.090Z,948.73
2019-04-11T07:44:38.611Z,948.74
2019-04-11T07:45:40.227Z,948.78
2019-04-11T07:46:38.659Z,948.75
2019-04-11T07:47:38.241Z,948.80
2019-04-11T07:48:38.148Z,948.74
2019-04-11T07:49:37.967Z,948.82
2019-04-11T07:50:37.754Z,948.85
2019-04-11T07:51:38.622Z,948.89
2019-04-11T07:52:38.016Z,948.88
2019-04-11T07:53:37.473Z,948.84
2019-04-11T07:54:37.389Z,948.88
2019-04-11T07:55:37.280Z,948.93
2019-04-11T07:56:37.545Z,948.86
2019-04-11T07:57:38.303Z,948.82
2019-04-11T07:58:37.507Z,948.81
2019-04-11T07:59:37.648Z,948.75
2019-04-11T08:00:44.213Z,948.78
2019-04-11T08:01:36.709Z,948.75
2019-04-11T08:02:37.649Z,948.65
2019-04-11T08:03:37.932Z,948.68
2019-04-11T08:04:36.514Z,948.64
2019-04-11T08:05:36.659Z,948.68
2019-04-11T08:06:37.057Z,948.58
2019-04-11T08:07:36.145Z,948.58
2019-04-11T08:08:36.810Z,948.53
2019-04-11T08:09:35.970Z,948.48
2019-04-11T08:10:37.040Z,948.40
2019-04-11T08:11:35.919Z,948.47
2019-04-11T08:12:35.680Z,948.43
2019-04-11T08:13:36.722Z,948.32
2019-04-11T08:14:35.505Z,948.28
2019-04-11T08:15:35.611Z,948.36
2019-04-11T08:16:35.296Z,948.21
2019-04-11T08:17:39.039Z,948.23
2019-04-11T08:18:35.109Z,948.29
2019-04-11T08:19:35.271Z,948.22
2019-04-11T08:20:34.923Z,948.30
2019-04-11T08:21:36.090Z,948.21
2019-04-11T08:22:35.109Z,948.17
2019-04-11T08:23:34.656Z,948.13
2019-04-11T08:24:34.663Z,948.08
2019-04-11T08:25:35.432Z,948.11
2019-04-11T08:26:34.362Z,948.06
2019-04-11T08:27:34.265Z,948.07
2019-04-11T08:28:35.484Z,947.98
2019-04-11T08:29:34.124Z,948.05
2019-04-11T08:30:35.000Z,947.98
2019-04-11T08:31:33.886Z,948.01
2019-04-11T08:32:33.823Z,947.98
2019-04-11T08:33:35.000Z,947.91
2019-04-11T08:34:33.624Z,947.96
2019-04-11T08:35:34.847Z,947.94
2019-04-11T08:36:33.785Z,947.89
2019-04-11T08:37:33.794Z,947.87
2019-04-11T08:38:34.278Z,947.92
2019-04-11T08:39:33.324Z,947.91
2019-04-11T08:40:33.613Z,947.91
2019-04-11T08:41:33.901Z,947.88
2019-04-11T08:42:33.743Z,947.91
2019-04-11T08:43:32.766Z,947.90
2019-04-11T08:44:32.697Z,947.92
2019-04-11T08:45:32.581Z,947.87
2019-04-11T08:46:33.065Z,947.85
2019-04-11T08:47:42.877Z,947.88
2019-04-11T08:48:33.041Z,947.87
2019-04-11T08:49:33.340Z,947.85
2019-04-11T08:50:32.390Z,947.82
2019-04-11T08:51:32.025Z,947.96
2019-04-11T08:52:32.070Z,947.98
2019-04-11T08:53:32.801Z,947.99
2019-04-11T08:54:31.747Z,947.93
2019-04-11T08:55:43.756Z,947.90
2019-04-11T08:56:31.559Z,947.90
2019-04-11T08:57:31.844Z,947.97
2019-04-11T08:58:31.389Z,948.00
2019-04-11T08:59:31.357Z,947.93
2019-04-11T09:00:31.843Z,947.88
2019-04-11T09:01:31.987Z,947.91
2019-04-11T09:02:31.170Z,947.91
2019-04-11T09:03:31.431Z,947.95
2019-04-11T09:04:30.817Z,947.98
2019-04-11T09:05:31.313Z,948.01
2019-04-11T09:06:30.715Z,947.98
2019-04-11T09:07:31.655Z,947.88
2019-04-11T09:08:30.445Z,947.95
2019-04-11T09:09:31.490Z,947.99
2019-04-11T09:10:30.275Z,947.75
2019-04-11T09:11:30.968Z,947.64
2019-04-11T09:12:30.842Z,947.74
2019-04-11T09:13:29.980Z,947.96
2019-04-11T09:14:30.497Z,947.89
2019-04-11T09:15:29.812Z,948.03
2019-04-11T09:16:29.862Z,947.94
2019-04-11T09:17:30.292Z,947.98
2019-04-11T09:18:30.225Z,947.91
2019-04-11T09:19:30.559Z,947.94
2019-04-11T09:20:29.762Z,947.95
2019-04-11T09:21:29.240Z,947.99
2019-04-11T09:22:29.175Z,947.97
2019-04-11T09:23:30.032Z,948.00
2019-04-11T09:24:28.958Z,948.01
2019-04-11T09:25:30.233Z,947.94
2019-04-11T09:26:28.774Z,947.98
2019-04-11T09:27:28.907Z,947.99
2019-04-11T09:28:29.212Z,947.90
2019-04-11T09:29:28.497Z,947.90
2019-04-11T09:30:28.634Z,947.95
2019-04-11T09:31:29.387Z,947.94
2019-04-11T09:32:28.583Z,947.90
2019-04-11T09:33:28.866Z,947.98
2019-04-11T09:34:28.144Z,947.97
2019-04-11T09:35:27.968Z,947.96
2019-04-11T09:36:29.024Z,947.98
2019-04-11T09:37:27.766Z,947.99
2019-04-11T09:38:28.528Z,947.98
2019-04-11T09:39:28.796Z,948.01
2019-04-11T09:40:28.063Z,947.92
2019-04-11T09:41:28.222Z,947.91
2019-04-11T09:42:28.313Z,948.01
2019-04-11T09:43:28.239Z,948.04
2019-04-11T09:44:27.115Z,948.05
2019-04-11T09:45:27.751Z,948.07
2019-04-11T09:46:27.218Z,948.05
2019-04-11T09:47:26.845Z,948.15
2019-04-11T09:48:26.748Z,948.23
2019-04-11T09:49:27.068Z,948.23
2019-04-11T09:50:26.678Z,948.20
2019-04-11T09:51:29.193Z,948.18
2019-04-11T09:52:26.979Z,948.20
2019-04-11T09:53:26.288Z,948.22
2019-04-11T09:54:26.258Z,948.31
2019-04-11T09:55:26.229Z,948.25
2019-04-11T09:56:27.019Z,948.27
2019-04-11T09:57:26.817Z,948.30
2019-04-11T09:58:25.830Z,948.26
2019-04-11T09:59:27.071Z,948.36
2019-04-11T10:00:26.678Z,948.33
2019-04-11T10:01:26.679Z,948.47
2019-04-11T10:02:25.562Z,948.46
2019-04-11T10:03:25.682Z,948.42
2019-04-11T10:04:25.615Z,948.50
2019-04-11T10:05:26.420Z,948.50
2019-04-11T10:06:25.095Z,948.55
2019-04-11T10:07:25.792Z,948.48
2019-04-11T10:08:24.916Z,948.53
2019-04-11T10:09:26.014Z,948.63
2019-04-11T10:10:24.747Z,948.82
2019-04-11T10:11:24.639Z,948.80
2019-04-11T10:12:24.551Z,948.83
2019-04-11T10:13:24.936Z,948.77
2019-04-11T10:14:24.364Z,947.97
2019-04-11T10:15:24.289Z,948.72
2019-04-11T10:16:24.286Z,948.74
2019-04-11T10:17:26.326Z,948.75
2019-04-11T10:18:27.797Z,948.77
2019-04-11T10:19:24.341Z,948.81
2019-04-11T10:20:24.529Z,948.82
2019-04-11T10:21:24.684Z,948.81
2019-04-11T10:22:23.692Z,948.97
2019-04-11T10:23:24.910Z,948.98
2019-04-11T10:24:24.234Z,948.94
2019-04-11T10:25:23.458Z,948.94
2019-04-11T10:26:23.575Z,949.04
2019-04-11T10:27:23.174Z,948.98
2019-04-11T10:28:23.085Z,948.92
2019-04-11T10:29:23.628Z,948.96
2019-04-11T10:30:23.990Z,949.07
2019-04-11T10:31:22.818Z,949.18
2019-04-11T10:32:23.311Z,949.08
2019-04-11T10:33:22.662Z,949.03
2019-04-11T10:34:23.621Z,948.94
2019-04-11T10:35:22.463Z,948.87
2019-04-11T10:36:23.152Z,948.91
2019-04-11T10:37:23.354Z,948.77
2019-04-11T10:38:22.506Z,949.11
2019-04-11T10:39:22.084Z,949.11
2019-04-11T10:40:21.997Z,949.17
2019-04-11T10:41:23.001Z,949.33
2019-04-11T10:42:22.163Z,949.52
2019-04-11T10:43:22.434Z,949.43
2019-04-11T10:44:21.631Z,949.44
2019-04-11T10:45:22.587Z,949.23
2019-04-11T10:46:21.472Z,949.16
2019-04-11T10:47:21.362Z,949.28
2019-04-11T10:48:33.496Z,949.31
2019-04-11T10:49:21.983Z,949.08
2019-04-11T10:50:21.748Z,949.07
2019-04-11T10:51:21.014Z,949.08
2019-04-11T10:52:20.905Z,949.02
2019-04-11T10:53:20.813Z,949.07
2019-04-11T10:54:21.802Z,949.15
2019-04-11T10:55:21.622Z,949.10
2019-04-11T10:56:20.558Z,949.26
2019-04-11T10:57:21.382Z,949.10
2019-04-11T10:58:20.583Z,949.06
2019-04-11T10:59:20.265Z,949.02
2019-04-11T11:00:20.915Z,949.19
2019-04-11T11:01:20.101Z,949.03
2019-04-11T11:02:20.942Z,948.90
2019-04-11T11:03:20.297Z,948.78
2019-04-11T11:04:20.004Z,948.79
2019-04-11T11:05:19.717Z,948.79
2019-04-11T11:06:19.811Z,948.78
2019-04-11T11:07:20.310Z,948.71
2019-04-11T11:08:19.504Z,948.66
2019-04-11T11:09:19.879Z,948.62
2019-04-11T11:10:19.552Z,948.65
2019-04-11T11:11:20.358Z,948.56
2019-04-11T11:12:19.131Z,948.70
2019-04-11T11:13:18.984Z,948.64
2019-04-11T11:14:18.947Z,948.61
2019-04-11T11:15:19.874Z,948.62
2019-04-11T11:16:18.725Z,948.61
2019-04-11T11:17:43.814Z,948.51
2019-04-11T11:18:59.701Z,948.51
2019-04-11T11:19:40.454Z,948.57
2019-04-11T11:20:26.744Z,948.68
2019-04-11T11:21:18.271Z,948.63
2019-04-11T11:22:18.873Z,948.51
2019-04-11T11:23:18.338Z,948.50
2019-04-11T11:24:17.985Z,948.49
2019-04-11T11:25:19.353Z,948.38
2019-04-11T11:26:22.581Z,948.29
2019-04-11T11:27:18.108Z,948.33
2019-04-11T11:28:17.897Z,948.33
2019-04-11T11:29:18.892Z,948.36
2019-04-11T11:30:17.683Z,948.39
2019-04-11T11:31:18.141Z,948.40
2019-04-11T11:32:17.270Z,948.39
2019-04-11T11:33:18.188Z,948.34
2019-04-11T11:34:19.997Z,948.22
2019-04-11T11:35:17.042Z,947.93
2019-04-11T11:36:17.346Z,947.92
2019-04-11T11:37:17.557Z,947.96
2019-04-11T11:38:17.678Z,947.93
2019-04-11T11:39:17.354Z,947.94
2019-04-11T11:40:18.318Z,948.04
2019-04-11T11:41:16.475Z,948.33
2019-04-11T11:42:16.358Z,948.18
2019-04-11T11:43:16.926Z,948.27
2019-04-11T11:44:16.177Z,948.35
2019-04-11T11:45:17.275Z,948.35
2019-04-11T11:46:16.120Z,948.33
2019-04-11T11:47:15.900Z,948.09
2019-04-11T11:48:18.789Z,947.96
2019-04-11T11:49:29.606Z,947.99
2019-04-11T11:50:18.773Z,948.34
2019-04-11T11:51:15.551Z,948.14
2019-04-11T11:52:15.446Z,948.11
2019-04-11T11:53:16.348Z,948.22
2019-04-11T11:54:15.642Z,948.31
2019-04-11T11:55:15.808Z,948.33
2019-04-11T11:56:15.905Z,948.31
2019-04-11T11:57:15.040Z,948.33
2019-04-11T11:58:17.011Z,948.36
2019-04-11T11:59:15.301Z,948.33
2019-04-11T12:00:15.022Z,948.29
2019-04-11T12:01:15.611Z,948.04
2019-04-11T12:02:17.443Z,947.96
2019-04-11T12:03:14.434Z,947.86
2019-04-11T12:04:14.793Z,948.23
2019-04-11T12:05:16.317Z,948.22
2019-04-11T12:06:16.959Z,948.02
2019-04-11T12:07:14.690Z,948.11
2019-04-11T12:08:16.474Z,947.90
2019-04-11T12:09:14.083Z,947.98
2019-04-11T12:10:13.797Z,947.96
2019-04-11T12:11:13.723Z,948.14
2019-04-11T12:12:13.619Z,948.18
2019-04-11T12:13:14.711Z,948.16
2019-04-11T12:14:13.748Z,948.19
2019-04-11T12:15:15.936Z,948.18
2019-04-11T12:16:16.052Z,948.22
2019-04-11T12:17:14.268Z,947.85
2019-04-11T12:18:15.803Z,947.94
2019-04-11T12:19:15.868Z,948.18
2019-04-11T12:20:15.997Z,948.14
2019-04-11T12:21:13.498Z,947.96
2019-04-11T12:22:12.699Z,948.15
2019-04-11T12:23:12.972Z,948.17
2019-04-11T12:24:13.521Z,948.12
2019-04-11T12:25:12.515Z,948.16
2019-04-11T12:26:14.116Z,948.23
2019-04-11T12:27:13.167Z,948.22
2019-04-11T12:28:14.705Z,948.13
2019-04-11T12:29:12.293Z,947.88
2019-04-11T12:30:11.969Z,947.93
2019-04-11T12:31:11.888Z,948.32